Time;durP1;ratioP1;P1;durP2;ratioP2;P2;SDS_P1;SDS_P2;PMS_P1;PMS_P2;Temp;Humidity;BMP_temperature;BMP_pressure;BME280_temperature;BME280_humidity;BME280_pressure;Samples;Min_cycle;Max_cycle;Signal;HPM_P1;HPM_P2
2024/03/14 00:00:18;;;;;;;;;;;8.80;99.90;;;;;;2069795;28;20127;-71
2024/03/14 00:01:18;;;;;;;;;;;8.80;99.90;;;;;;2069688;28;19936;-71
2024/03/14 00:02:19;;;;;;;;;;;8.80;99.90;;;;;;2070135;28;19921;-71
2024/03/14 00:03:20;;;;;;;;;;;8.80;99.90;;;;;;2070439;28;19918;-71
2024/03/14 00:04:21;;;;;;;;;;;8.80;99.90;;;;;;2070260;28;19918;-71
2024/03/14 00:05:21;;;;;;;;;;;8.80;99.90;;;;;;2069329;28;20466;-72
2024/03/14 00:06:22;;;;;;;;;;;8.80;99.90;;;;;;2069776;28;20209;-71
2024/03/14 00:07:23;;;;;;;;;;;8.80;99.90;;;;;;2070382;28;19914;-71
2024/03/14 00:08:23;;;;;;;;;;;8.80;99.90;;;;;;2070237;28;19913;-71
2024/03/14 00:09:25;;;;;;;;;;;8.80;99.90;;;;;;2061549;28;19918;-71
2024/03/14 00:10:25;;;;;;;;;;;8.80;99.90;;;;;;2065154;28;19925;-71
2024/03/14 00:11:27;;;;;;;;;;;8.80;99.90;;;;;;2070131;28;19917;-71
2024/03/14 00:12:28;;;;;;;;;;;8.80;99.90;;;;;;2066168;28;20396;-71
2024/03/14 00:13:28;;;;;;;;;;;8.80;99.90;;;;;;2070183;28;20004;-71
2024/03/14 00:14:29;;;;;;;;;;;8.80;99.90;;;;;;2069639;28;20003;-71
2024/03/14 00:15:30;;;;;;;;;;;8.80;99.90;;;;;;2069704;28;20280;-72
2024/03/14 00:16:30;;;;;;;;;;;8.80;99.90;;;;;;2070277;28;19956;-71
2024/03/14 00:17:32;;;;;;;;;;;8.70;99.90;;;;;;2069892;28;19913;-71
2024/03/14 00:18:32;;;;;;;;;;;8.80;99.90;;;;;;2070553;28;19921;-72
2024/03/14 00:19:33;;;;;;;;;;;8.80;99.90;;;;;;2074285;28;19920;-72
2024/03/14 00:20:33;;;;;;;;;;;8.80;99.90;;;;;;2074694;28;19910;-72
2024/03/14 00:21:37;;;;;;;;;;;8.80;99.90;;;;;;2073450;28;20315;-72
2024/03/14 00:22:37;;;;;;;;;;;8.70;99.90;;;;;;2071798;28;20089;-72
2024/03/14 00:23:38;;;;;;;;;;;8.70;99.90;;;;;;2071726;28;19913;-72
2024/03/14 00:24:41;;;;;;;;;;;8.70;99.90;;;;;;2071608;28;19921;-72
2024/03/14 00:25:42;;;;;;;;;;;8.70;99.90;;;;;;2079350;28;20135;-71
2024/03/14 00:26:42;;;;;;;;;;;8.70;99.90;;;;;;2072138;28;19913;-72
2024/03/14 00:27:43;;;;;;;;;;;8.70;99.90;;;;;;2071109;28;19921;-72
2024/03/14 00:28:45;;;;;;;;;;;8.70;99.90;;;;;;2070599;28;19924;-71
2024/03/14 00:29:45;;;;;;;;;;;8.80;99.90;;;;;;2071209;28;19924;-72
2024/03/14 00:30:46;;;;;;;;;;;8.80;99.90;;;;;;2070190;28;20391;-71
2024/03/14 00:31:47;;;;;;;;;;;8.80;99.90;;;;;;2064077;28;20028;-71
2024/03/14 00:32:47;;;;;;;;;;;8.80;99.90;;;;;;2070380;28;19968;-71
2024/03/14 00:33:48;;;;;;;;;;;8.80;99.90;;;;;;2070164;28;19913;-71
2024/03/14 00:34:48;;;;;;;;;;;8.80;99.90;;;;;;2068861;28;19983;-70
2024/03/14 00:35:49;;;;;;;;;;;8.80;99.90;;;;;;2069293;28;19913;-70
2024/03/14 00:36:49;;;;;;;;;;;8.80;99.90;;;;;;2070221;28;19913;-70
2024/03/14 00:37:50;;;;;;;;;;;8.80;99.90;;;;;;2069293;28;19923;-70
2024/03/14 00:38:50;;;;;;;;;;;8.80;99.90;;;;;;2069831;28;20378;-70
2024/03/14 00:39:51;;;;;;;;;;;8.80;99.90;;;;;;2069997;28;20287;-71
2024/03/14 00:40:53;;;;;;;;;;;8.80;99.90;;;;;;2070049;28;19921;-74
2024/03/14 00:41:53;;;;;;;;;;;8.80;99.90;;;;;;2070007;28;20375;-74
2024/03/14 00:42:55;;;;;;;;;;;8.80;99.90;;;;;;2069421;28;20274;-74
2024/03/14 00:43:55;;;;;;;;;;;8.80;99.90;;;;;;2069183;28;19918;-74
2024/03/14 00:44:56;;;;;;;;;;;8.80;99.90;;;;;;2070073;28;19948;-74
2024/03/14 00:45:58;;;;;;;;;;;8.80;99.90;;;;;;2069543;28;19913;-74
2024/03/14 00:46:59;;;;;;;;;;;8.90;99.90;;;;;;2069424;28;20438;-74
2024/03/14 00:47:59;;;;;;;;;;;8.90;99.90;;;;;;2069941;28;20449;-73
2024/03/14 00:49:00;;;;;;;;;;;8.90;99.90;;;;;;2069474;28;19956;-72
2024/03/14 00:50:01;;;;;;;;;;;8.90;99.90;;;;;;2069338;28;20493;-73
2024/03/14 00:51:04;;;;;;;;;;;8.90;99.90;;;;;;2070025;28;19917;-73
2024/03/14 00:52:05;;;;;;;;;;;8.90;99.90;;;;;;2070129;28;20329;-75
2024/03/14 00:53:06;;;;;;;;;;;8.80;99.90;;;;;;2070255;28;20117;-74
2024/03/14 00:54:07;;;;;;;;;;;8.80;99.90;;;;;;2070159;28;20466;-74
2024/03/14 00:55:09;;;;;;;;;;;8.80;99.90;;;;;;2069610;28;19913;-74
2024/03/14 00:56:11;;;;;;;;;;;8.80;99.90;;;;;;2068469;28;19921;-74
2024/03/14 00:57:12;;;;;;;;;;;8.80;99.90;;;;;;2069061;28;20303;-74
2024/03/14 00:58:12;;;;;;;;;;;8.80;99.90;;;;;;2068097;28;19914;-74
2024/03/14 00:59:12;;;;;;;;;;;8.90;99.90;;;;;;2068092;28;20299;-74
2024/03/14 01:00:13;;;;;;;;;;;8.90;99.90;;;;;;2069003;28;19952;-74
2024/03/14 01:01:14;;;;;;;;;;;8.80;99.90;;;;;;2068762;28;19952;-74
2024/03/14 01:02:15;;;;;;;;;;;8.80;99.90;;;;;;2068765;28;19940;-74
2024/03/14 01:03:17;;;;;;;;;;;8.80;99.90;;;;;;2068319;28;19917;-73
2024/03/14 01:04:17;;;;;;;;;;;8.80;99.90;;;;;;2063819;28;19918;-73
2024/03/14 01:05:18;;;;;;;;;;;8.80;99.90;;;;;;2067965;28;19995;-74
2024/03/14 01:06:22;;;;;;;;;;;8.80;99.90;;;;;;2068952;28;19980;-73
2024/03/14 01:07:23;;;;;;;;;;;8.90;99.90;;;;;;2068770;28;20015;-74
2024/03/14 01:08:24;;;;;;;;;;;8.90;99.90;;;;;;2064745;28;19918;-74
2024/03/14 01:09:27;;;;;;;;;;;8.90;99.90;;;;;;2068049;28;19909;-74
2024/03/14 01:10:28;;;;;;;;;;;8.80;99.90;;;;;;2068875;28;19917;-73
2024/03/14 01:11:29;;;;;;;;;;;8.80;99.90;;;;;;2068653;28;19918;-74
2024/03/14 01:12:29;;;;;;;;;;;8.80;99.90;;;;;;2068361;28;19971;-73
2024/03/14 01:13:29;;;;;;;;;;;8.80;99.90;;;;;;2068598;28;20015;-73
2024/03/14 01:14:30;;;;;;;;;;;8.80;99.90;;;;;;2068025;28;20647;-74
2024/03/14 01:15:30;;;;;;;;;;;8.80;99.90;;;;;;2068007;28;20011;-73
2024/03/14 01:16:31;;;;;;;;;;;8.80;99.90;;;;;;2068406;28;19979;-73
2024/03/14 01:17:32;;;;;;;;;;;8.80;99.90;;;;;;2068629;28;19925;-73
2024/03/14 01:18:32;;;;;;;;;;;8.80;99.90;;;;;;2067974;28;20004;-73
2024/03/14 01:19:32;;;;;;;;;;;8.80;99.90;;;;;;2067909;28;19917;-74
2024/03/14 01:20:33;;;;;;;;;;;8.70;99.90;;;;;;2067700;28;19910;-74
2024/03/14 01:21:39;;;;;;;;;;;8.70;99.90;;;;;;2067905;28;20116;-74
2024/03/14 01:22:40;;;;;;;;;;;8.70;99.90;;;;;;2064827;28;20188;-74
2024/03/14 01:23:41;;;;;;;;;;;8.70;99.90;;;;;;2067898;28;19928;-74
2024/03/14 01:24:43;;;;;;;;;;;8.70;99.90;;;;;;2067863;28;19976;-74
2024/03/14 01:25:44;;;;;;;;;;;8.70;99.90;;;;;;2067605;28;19917;-73
2024/03/14 01:26:45;;;;;;;;;;;8.70;99.90;;;;;;2059876;28;19918;-74
2024/03/14 01:27:45;;;;;;;;;;;8.70;99.90;;;;;;2059789;28;19957;-73
2024/03/14 01:28:46;;;;;;;;;;;8.70;99.90;;;;;;2067820;28;19957;-73
2024/03/14 01:29:46;;;;;;;;;;;8.70;99.90;;;;;;2068458;28;19917;-74
2024/03/14 01:30:47;;;;;;;;;;;8.60;99.90;;;;;;2067331;28;20285;-74
2024/03/14 01:31:47;;;;;;;;;;;8.60;99.90;;;;;;2064681;28;20315;-73
2024/03/14 01:32:49;;;;;;;;;;;8.60;99.90;;;;;;2067693;28;19913;-73
2024/03/14 01:33:51;;;;;;;;;;;8.60;99.90;;;;;;2067863;28;19951;-74
2024/03/14 01:34:51;;;;;;;;;;;8.50;99.90;;;;;;2068461;28;19917;-74
2024/03/14 01:35:58;;;;;;;;;;;8.50;99.90;;;;;;2059704;28;19971;-74
2024/03/14 01:37:03;;;;;;;;;;;8.50;99.90;;;;;;2064555;28;19913;-75
2024/03/14 01:38:04;;;;;;;;;;;8.50;99.90;;;;;;2068321;28;20008;-74
2024/03/14 01:39:10;;;;;;;;;;;8.50;99.90;;;;;;2076077;28;19924;-74
2024/03/14 01:40:13;;;;;;;;;;;8.50;99.90;;;;;;2074960;28;20026;-73
2024/03/14 01:41:18;;;;;;;;;;;8.50;99.90;;;;;;2068331;28;20319;-74
2024/03/14 01:42:19;;;;;;;;;;;8.50;99.90;;;;;;2064770;28;19928;-75
2024/03/14 01:43:19;;;;;;;;;;;8.60;99.90;;;;;;2068619;28;19979;-75
2024/03/14 01:44:20;;;;;;;;;;;8.60;99.90;;;;;;2068437;28;19921;-73
2024/03/14 01:45:21;;;;;;;;;;;8.60;99.90;;;;;;2067463;28;20011;-74
2024/03/14 01:46:21;;;;;;;;;;;8.60;99.90;;;;;;2068110;28;19917;-74
2024/03/14 01:47:22;;;;;;;;;;;8.60;99.90;;;;;;2068470;28;20439;-73
2024/03/14 01:48:23;;;;;;;;;;;8.60;99.90;;;;;;2068447;28;19913;-75
2024/03/14 01:49:23;;;;;;;;;;;8.50;99.90;;;;;;2067733;28;20287;-74
2024/03/14 01:50:24;;;;;;;;;;;8.50;99.90;;;;;;2067500;28;20004;-73
2024/03/14 01:51:25;;;;;;;;;;;8.50;99.90;;;;;;2067546;28;19917;-74
2024/03/14 01:52:25;;;;;;;;;;;8.40;99.90;;;;;;2067591;28;19917;-74
2024/03/14 01:53:26;;;;;;;;;;;8.50;99.90;;;;;;2067837;28;19939;-73
2024/03/14 01:54:26;;;;;;;;;;;8.50;99.90;;;;;;2068435;28;19918;-73
2024/03/14 01:55:27;;;;;;;;;;;8.50;99.90;;;;;;2062431;28;19917;-73
2024/03/14 01:56:27;;;;;;;;;;;8.50;99.90;;;;;;2059797;28;19925;-73
2024/03/14 01:57:29;;;;;;;;;;;8.50;99.90;;;;;;2064855;28;19920;-74
2024/03/14 01:58:31;;;;;;;;;;;8.50;99.90;;;;;;2067835;28;20239;-74
2024/03/14 01:59:32;;;;;;;;;;;8.60;99.90;;;;;;2068120;28;19918;-73
2024/03/14 02:00:35;;;;;;;;;;;8.60;99.90;;;;;;2067752;28;19914;-74
2024/03/14 02:01:36;;;;;;;;;;;8.50;99.90;;;;;;2059733;28;19914;-76
2024/03/14 02:02:37;;;;;;;;;;;8.50;99.90;;;;;;2067517;28;20639;-75
2024/03/14 02:03:37;;;;;;;;;;;8.40;99.90;;;;;;2068504;28;19928;-73
2024/03/14 02:04:38;;;;;;;;;;;8.40;99.90;;;;;;2068318;28;19909;-79
2024/03/14 02:05:41;;;;;;;;;;;8.40;99.90;;;;;;2061280;28;19925;-76
2024/03/14 02:06:50;;;;;;;;;;;8.40;99.90;;;;;;2053268;28;20017;-72
2024/03/14 02:07:51;;;;;;;;;;;8.30;99.90;;;;;;2056959;28;19922;-74
2024/03/14 02:08:51;;;;;;;;;;;8.30;99.90;;;;;;2065381;28;20418;-72
2024/03/14 02:09:52;;;;;;;;;;;8.40;99.90;;;;;;2067567;28;19921;-72
2024/03/14 02:10:52;;;;;;;;;;;8.30;99.90;;;;;;2067984;28;20303;-72
2024/03/14 02:11:53;;;;;;;;;;;8.30;99.90;;;;;;2067588;28;20379;-72
2024/03/14 02:12:54;;;;;;;;;;;8.30;99.90;;;;;;2059291;28;20013;-72
2024/03/14 02:13:55;;;;;;;;;;;8.30;99.90;;;;;;2067564;28;19917;-72
2024/03/14 02:14:56;;;;;;;;;;;8.30;99.90;;;;;;2063505;28;19918;-72
2024/03/14 02:15:57;;;;;;;;;;;8.30;99.90;;;;;;2067458;28;19917;-73
2024/03/14 02:16:58;;;;;;;;;;;8.30;99.90;;;;;;2067969;28;20008;-72
2024/03/14 02:17:59;;;;;;;;;;;8.30;99.90;;;;;;2067363;28;20273;-72
2024/03/14 02:18:59;;;;;;;;;;;8.30;99.90;;;;;;2067627;28;19960;-72
2024/03/14 02:20:00;;;;;;;;;;;8.40;99.90;;;;;;2067381;28;20474;-72
2024/03/14 02:21:00;;;;;;;;;;;8.30;99.90;;;;;;2068102;28;19964;-72
2024/03/14 02:22:01;;;;;;;;;;;8.30;99.90;;;;;;2068164;28;19913;-72
2024/03/14 02:23:02;;;;;;;;;;;8.30;99.90;;;;;;2068009;28;19917;-72
2024/03/14 02:24:03;;;;;;;;;;;8.30;99.90;;;;;;2067943;28;20355;-72
2024/03/14 02:25:03;;;;;;;;;;;8.30;99.90;;;;;;2068095;28;19929;-72
2024/03/14 02:26:06;;;;;;;;;;;8.30;99.90;;;;;;2067386;28;19914;-72
2024/03/14 02:27:07;;;;;;;;;;;8.20;99.90;;;;;;2067396;28;19928;-72
2024/03/14 02:28:09;;;;;;;;;;;8.20;99.90;;;;;;2063439;28;19917;-72
2024/03/14 02:29:10;;;;;;;;;;;8.20;99.90;;;;;;2060542;28;19914;-72
2024/03/14 02:30:11;;;;;;;;;;;8.20;99.90;;;;;;2059071;28;19918;-73
2024/03/14 02:31:11;;;;;;;;;;;8.20;99.90;;;;;;2065777;28;19920;-72
2024/03/14 02:32:12;;;;;;;;;;;8.20;99.90;;;;;;2068155;28;19976;-72
2024/03/14 02:33:13;;;;;;;;;;;8.20;99.90;;;;;;2068079;28;19924;-72
2024/03/14 02:34:14;;;;;;;;;;;8.20;99.90;;;;;;2067532;28;19914;-71
2024/03/14 02:35:15;;;;;;;;;;;8.20;99.90;;;;;;2067294;28;20788;-74
2024/03/14 02:36:15;;;;;;;;;;;8.30;99.90;;;;;;2066820;28;19914;-72
2024/03/14 02:37:16;;;;;;;;;;;8.30;99.90;;;;;;2067394;28;19922;-71
2024/03/14 02:38:17;;;;;;;;;;;8.30;99.90;;;;;;2067260;28;19917;-73
2024/03/14 02:39:22;;;;;;;;;;;8.30;99.90;;;;;;2057527;28;20383;-73
2024/03/14 02:40:22;;;;;;;;;;;8.30;99.90;;;;;;2060181;28;20403;-73
2024/03/14 02:41:23;;;;;;;;;;;8.30;99.90;;;;;;2068058;28;19917;-73
2024/03/14 02:42:23;;;;;;;;;;;8.30;99.90;;;;;;2067806;28;19927;-73
2024/03/14 02:43:25;;;;;;;;;;;8.30;99.90;;;;;;2067508;28;20020;-73
2024/03/14 02:44:26;;;;;;;;;;;8.30;99.90;;;;;;2059358;28;20359;-74
2024/03/14 02:45:26;;;;;;;;;;;8.40;99.90;;;;;;2067217;28;19924;-71
2024/03/14 02:46:27;;;;;;;;;;;8.40;99.90;;;;;;2067219;28;19917;-72
2024/03/14 02:47:27;;;;;;;;;;;8.50;99.90;;;;;;2067134;28;20306;-70
2024/03/14 02:48:28;;;;;;;;;;;8.40;99.90;;;;;;2067300;28;19917;-73
2024/03/14 02:49:28;;;;;;;;;;;8.40;99.90;;;;;;2067273;28;20318;-73
2024/03/14 02:50:29;;;;;;;;;;;8.40;99.90;;;;;;2067361;28;19921;-73
2024/03/14 02:51:29;;;;;;;;;;;8.40;99.90;;;;;;2067660;28;19917;-73
2024/03/14 02:52:30;;;;;;;;;;;8.40;99.90;;;;;;2059198;28;19925;-73
2024/03/14 02:53:30;;;;;;;;;;;8.50;99.90;;;;;;2050832;28;19949;-73
2024/03/14 02:54:31;;;;;;;;;;;8.40;99.90;;;;;;2067190;28;19918;-72
2024/03/14 02:55:31;;;;;;;;;;;8.40;99.90;;;;;;2067269;28;19914;-72
2024/03/14 02:56:32;;;;;;;;;;;8.50;99.90;;;;;;2067346;28;19988;-72
2024/03/14 02:57:34;;;;;;;;;;;8.40;99.90;;;;;;2068007;28;19921;-72
2024/03/14 02:58:36;;;;;;;;;;;8.40;99.90;;;;;;2067809;28;19917;-72
2024/03/14 02:59:37;;;;;;;;;;;8.50;99.90;;;;;;2067757;28;19914;-72
2024/03/14 03:00:38;;;;;;;;;;;8.40;99.90;;;;;;2067844;28;19967;-72
2024/03/14 03:01:38;;;;;;;;;;;8.40;99.90;;;;;;2067684;28;20439;-72
2024/03/14 03:02:39;;;;;;;;;;;8.40;99.90;;;;;;2067884;28;19928;-72
2024/03/14 03:03:41;;;;;;;;;;;8.40;99.90;;;;;;2067040;28;20166;-72
2024/03/14 03:04:44;;;;;;;;;;;8.40;99.90;;;;;;2051020;28;20384;-71
2024/03/14 03:05:48;;;;;;;;;;;8.30;99.90;;;;;;2059276;28;20007;-73
2024/03/14 03:06:53;;;;;;;;;;;8.40;99.90;;;;;;2067282;28;19918;-74
2024/03/14 03:07:54;;;;;;;;;;;8.30;99.90;;;;;;2067211;28;19924;-73
2024/03/14 03:08:57;;;;;;;;;;;8.30;99.90;;;;;;2066695;28;19921;-72
2024/03/14 03:09:58;;;;;;;;;;;8.30;99.90;;;;;;2067241;28;19918;-73
2024/03/14 03:10:58;;;;;;;;;;;8.30;99.90;;;;;;2067052;28;20473;-73
2024/03/14 03:11:59;;;;;;;;;;;8.30;99.90;;;;;;2067227;28;19961;-73
2024/03/14 03:12:59;;;;;;;;;;;8.30;99.90;;;;;;2067765;28;19949;-70
2024/03/14 03:14:00;;;;;;;;;;;8.20;99.90;;;;;;2067038;28;19917;-72
2024/03/14 03:15:01;;;;;;;;;;;8.10;99.90;;;;;;2063231;28;19974;-72
2024/03/14 03:16:04;;;;;;;;;;;8.10;99.90;;;;;;2067188;28;20164;-72
2024/03/14 03:17:07;;;;;;;;;;;8.10;99.90;;;;;;2066790;28;20000;-71
2024/03/14 03:18:08;;;;;;;;;;;8.10;99.90;;;;;;2067141;28;19921;-71
2024/03/14 03:19:09;;;;;;;;;;;8.00;99.90;;;;;;2066989;28;19996;-73
2024/03/14 03:20:10;;;;;;;;;;;7.90;99.90;;;;;;2067577;28;20012;-72
2024/03/14 03:21:11;;;;;;;;;;;7.90;99.90;;;;;;2066910;28;19917;-73
2024/03/14 03:22:11;;;;;;;;;;;7.90;99.90;;;;;;2066963;28;19985;-72
2024/03/14 03:23:12;;;;;;;;;;;7.80;99.90;;;;;;2067985;28;19925;-72
2024/03/14 03:24:13;;;;;;;;;;;7.80;99.90;;;;;;2067491;28;19925;-72
2024/03/14 03:25:14;;;;;;;;;;;7.70;99.90;;;;;;2067765;28;19917;-71
2024/03/14 03:26:15;;;;;;;;;;;7.70;99.90;;;;;;2067998;28;20012;-72
2024/03/14 03:27:15;;;;;;;;;;;7.70;99.90;;;;;;2067475;28;19932;-73
2024/03/14 03:28:16;;;;;;;;;;;7.70;99.90;;;;;;2066689;28;19914;-72
2024/03/14 03:29:16;;;;;;;;;;;7.70;99.90;;;;;;2067122;28;19976;-73
2024/03/14 03:30:17;;;;;;;;;;;7.60;99.90;;;;;;2066505;28;19913;-72
2024/03/14 03:31:17;;;;;;;;;;;7.60;99.90;;;;;;2065175;28;19925;-72
2024/03/14 03:32:19;;;;;;;;;;;7.60;99.90;;;;;;2066773;28;19917;-73
2024/03/14 03:33:20;;;;;;;;;;;7.60;99.90;;;;;;2059063;28;20478;-74
2024/03/14 03:34:23;;;;;;;;;;;7.50;99.90;;;;;;2066970;28;19984;-71
2024/03/14 03:35:24;;;;;;;;;;;7.50;99.90;;;;;;2067772;28;19918;-72
2024/03/14 03:36:26;;;;;;;;;;;7.50;99.90;;;;;;2067029;28;20359;-74
2024/03/14 03:37:28;;;;;;;;;;;7.50;99.90;;;;;;2066866;28;19921;-72
2024/03/14 03:38:29;;;;;;;;;;;7.50;99.90;;;;;;2067641;28;19913;-72
2024/03/14 03:39:31;;;;;;;;;;;7.50;99.90;;;;;;2062573;28;19960;-72
2024/03/14 03:40:35;;;;;;;;;;;7.50;99.90;;;;;;2062779;28;20116;-72
2024/03/14 03:41:37;;;;;;;;;;;7.60;99.90;;;;;;2060000;28;19914;-72
2024/03/14 03:42:37;;;;;;;;;;;7.60;99.90;;;;;;2066748;28;19926;-72
2024/03/14 03:43:38;;;;;;;;;;;7.60;99.90;;;;;;2067677;28;19940;-72
2024/03/14 03:44:40;;;;;;;;;;;7.60;99.90;;;;;;2067565;28;19913;-72
2024/03/14 03:45:41;;;;;;;;;;;7.60;99.90;;;;;;2066712;28;20343;-72
2024/03/14 03:46:44;;;;;;;;;;;7.60;99.90;;;;;;2067049;28;19948;-72
2024/03/14 03:47:45;;;;;;;;;;;7.60;99.90;;;;;;2067400;28;19968;-71
2024/03/14 03:48:46;;;;;;;;;;;7.50;99.90;;;;;;2067729;28;19920;-71
2024/03/14 03:49:47;;;;;;;;;;;7.50;99.90;;;;;;2067557;28;19937;-71
2024/03/14 03:50:48;;;;;;;;;;;7.50;99.90;;;;;;2067266;28;19913;-74
2024/03/14 03:51:49;;;;;;;;;;;7.50;99.90;;;;;;2067658;28;19917;-73
2024/03/14 03:52:50;;;;;;;;;;;7.50;99.90;;;;;;2066789;28;20213;-71
2024/03/14 03:53:52;;;;;;;;;;;7.50;99.90;;;;;;2066792;28;19909;-73
2024/03/14 03:54:53;;;;;;;;;;;7.50;99.90;;;;;;2067412;28;19914;-72
2024/03/14 03:55:53;;;;;;;;;;;7.60;99.90;;;;;;2067749;28;19953;-71
2024/03/14 03:56:54;;;;;;;;;;;7.60;99.90;;;;;;2067484;28;20391;-72
2024/03/14 03:57:56;;;;;;;;;;;7.60;99.90;;;;;;2067469;28;20527;-72
2024/03/14 03:58:58;;;;;;;;;;;7.60;99.90;;;;;;2066984;28;19920;-72
2024/03/14 03:59:59;;;;;;;;;;;7.60;99.90;;;;;;2058718;28;20036;-72
2024/03/14 04:01:06;;;;;;;;;;;7.50;99.90;;;;;;2058705;28;19918;-73
2024/03/14 04:02:09;;;;;;;;;;;7.40;99.90;;;;;;2066940;28;19921;-71
2024/03/14 04:03:14;;;;;;;;;;;7.40;99.90;;;;;;2067459;28;19922;-71
2024/03/14 04:04:15;;;;;;;;;;;7.40;99.90;;;;;;2067631;28;19957;-72
2024/03/14 04:05:15;;;;;;;;;;;7.40;99.90;;;;;;2067486;28;19913;-74
2024/03/14 04:06:16;;;;;;;;;;;7.40;99.90;;;;;;2067697;28;19960;-74
2024/03/14 04:07:16;;;;;;;;;;;7.40;99.90;;;;;;2067062;28;20016;-72
2024/03/14 04:08:17;;;;;;;;;;;7.40;99.90;;;;;;2066944;28;19913;-72
2024/03/14 04:09:17;;;;;;;;;;;7.40;99.90;;;;;;2067627;28;20375;-72
2024/03/14 04:10:18;;;;;;;;;;;7.40;99.90;;;;;;2067595;28;19929;-73
2024/03/14 04:11:18;;;;;;;;;;;7.40;99.90;;;;;;2066992;28;19944;-73
2024/03/14 04:12:19;;;;;;;;;;;7.40;99.90;;;;;;2066606;28;20303;-72
2024/03/14 04:13:19;;;;;;;;;;;7.30;99.90;;;;;;2067504;28;19925;-73
2024/03/14 04:14:20;;;;;;;;;;;7.30;99.90;;;;;;2067538;28;19914;-73
2024/03/14 04:15:21;;;;;;;;;;;7.30;99.90;;;;;;2066503;28;19917;-73
2024/03/14 04:16:22;;;;;;;;;;;7.30;99.90;;;;;;2068720;28;20019;-72
2024/03/14 04:17:22;;;;;;;;;;;7.30;99.90;;;;;;2069101;28;19917;-71
2024/03/14 04:18:23;;;;;;;;;;;7.30;99.90;;;;;;2070660;28;19917;-72
2024/03/14 04:19:24;;;;;;;;;;;7.30;99.90;;;;;;2066656;28;19996;-72
2024/03/14 04:20:28;;;;;;;;;;;7.30;99.90;;;;;;2066572;28;19917;-73
2024/03/14 04:21:28;;;;;;;;;;;7.40;99.90;;;;;;2067660;28;20391;-72
2024/03/14 04:22:29;;;;;;;;;;;7.40;99.90;;;;;;2066683;28;20343;-72
2024/03/14 04:23:29;;;;;;;;;;;7.50;99.90;;;;;;2060569;28;20405;-72
2024/03/14 04:24:31;;;;;;;;;;;7.50;99.90;;;;;;2060110;28;19975;-72
2024/03/14 04:25:32;;;;;;;;;;;7.50;99.90;;;;;;2066802;28;20303;-72
2024/03/14 04:26:32;;;;;;;;;;;7.50;99.90;;;;;;2066850;28;19918;-72
2024/03/14 04:27:33;;;;;;;;;;;7.50;99.90;;;;;;2067416;28;20016;-72
2024/03/14 04:28:34;;;;;;;;;;;7.40;99.90;;;;;;2066969;28;20383;-72
2024/03/14 04:29:35;;;;;;;;;;;7.40;99.90;;;;;;2070909;28;19945;-72
2024/03/14 04:30:36;;;;;;;;;;;7.40;99.90;;;;;;2066449;28;19975;-72
2024/03/14 04:31:37;;;;;;;;;;;7.40;99.90;;;;;;2065915;28;20370;-73
2024/03/14 04:32:38;;;;;;;;;;;7.40;99.90;;;;;;2068285;28;20011;-73
2024/03/14 04:33:39;;;;;;;;;;;7.40;99.90;;;;;;2067817;28;19996;-73
2024/03/14 04:34:40;;;;;;;;;;;7.50;99.90;;;;;;2068061;28;19921;-73
2024/03/14 04:35:40;;;;;;;;;;;7.50;99.90;;;;;;2072244;28;20506;-73
2024/03/14 04:36:41;;;;;;;;;;;7.50;99.90;;;;;;2068124;28;20383;-73
2024/03/14 04:37:42;;;;;;;;;;;7.50;99.90;;;;;;2066825;28;20399;-72
2024/03/14 04:38:43;;;;;;;;;;;7.50;99.90;;;;;;2067853;28;19922;-72
2024/03/14 04:39:43;;;;;;;;;;;7.50;99.90;;;;;;2068511;28;20280;-72
2024/03/14 04:40:44;;;;;;;;;;;7.50;99.90;;;;;;2068633;28;19924;-72
2024/03/14 04:41:45;;;;;;;;;;;7.50;99.90;;;;;;2068676;28;19926;-72
2024/03/14 04:42:46;;;;;;;;;;;7.50;99.90;;;;;;2068389;28;19921;-73
2024/03/14 04:43:47;;;;;;;;;;;7.50;99.90;;;;;;2067720;28;20265;-73
2024/03/14 04:44:47;;;;;;;;;;;7.50;99.90;;;;;;2067680;28;19999;-73
2024/03/14 04:45:48;;;;;;;;;;;7.50;99.90;;;;;;2067813;28;19984;-72
2024/03/14 04:46:54;;;;;;;;;;;7.60;99.90;;;;;;2068270;28;19917;-73
2024/03/14 04:47:55;;;;;;;;;;;7.60;99.90;;;;;;2068929;28;19960;-72
2024/03/14 04:48:56;;;;;;;;;;;7.60;99.90;;;;;;2068726;28;19960;-73
2024/03/14 04:49:56;;;;;;;;;;;7.60;99.90;;;;;;2068964;28;20405;-71
2024/03/14 04:50:57;;;;;;;;;;;7.60;99.90;;;;;;2068014;28;19948;-72
2024/03/14 04:51:58;;;;;;;;;;;7.60;99.90;;;;;;2068130;28;20462;-71
2024/03/14 04:52:58;;;;;;;;;;;7.50;99.90;;;;;;2068186;28;20268;-72
2024/03/14 04:53:59;;;;;;;;;;;7.50;99.90;;;;;;2068192;28;20026;-72
2024/03/14 04:54:59;;;;;;;;;;;7.50;99.90;;;;;;2068865;28;20134;-72
2024/03/14 04:56:02;;;;;;;;;;;7.50;99.90;;;;;;2068635;28;19917;-72
2024/03/14 04:57:02;;;;;;;;;;;7.50;99.90;;;;;;2067651;28;19940;-72
2024/03/14 04:58:03;;;;;;;;;;;7.50;99.90;;;;;;2068184;28;19968;-72
2024/03/14 04:59:08;;;;;;;;;;;7.50;99.90;;;;;;2068171;28;19917;-72
2024/03/14 05:00:20;;;;;;;;;;;7.50;99.90;;;;;;2068225;28;20396;-71
2024/03/14 05:01:21;;;;;;;;;;;7.50;99.90;;;;;;2056122;28;20100;-72
2024/03/14 05:02:22;;;;;;;;;;;7.50;99.90;;;;;;2059917;28;20122;-72
2024/03/14 05:03:23;;;;;;;;;;;7.50;99.90;;;;;;2068622;28;19913;-72
2024/03/14 05:04:23;;;;;;;;;;;7.50;99.90;;;;;;2067790;28;19960;-73
2024/03/14 05:05:24;;;;;;;;;;;7.50;99.90;;;;;;2068175;28;20276;-72
2024/03/14 05:06:27;;;;;;;;;;;7.50;99.90;;;;;;2067861;28;19929;-72
2024/03/14 05:07:28;;;;;;;;;;;7.60;99.90;;;;;;2067236;28;19945;-72
2024/03/14 05:08:29;;;;;;;;;;;7.50;99.90;;;;;;2067979;28;20008;-72
2024/03/14 05:09:29;;;;;;;;;;;7.60;99.90;;;;;;2067661;28;19963;-72
2024/03/14 05:10:31;;;;;;;;;;;7.60;99.90;;;;;;2068539;28;19918;-72
2024/03/14 05:11:32;;;;;;;;;;;7.60;99.90;;;;;;2068585;28;20406;-72
2024/03/14 05:12:32;;;;;;;;;;;7.60;99.90;;;;;;2068599;28;19920;-72
2024/03/14 05:13:33;;;;;;;;;;;7.60;99.90;;;;;;2068703;28;20339;-72
2024/03/14 05:14:36;;;;;;;;;;;7.60;99.90;;;;;;2068136;28;19968;-72
2024/03/14 05:15:36;;;;;;;;;;;7.60;99.90;;;;;;2068403;28;19967;-71
2024/03/14 05:16:37;;;;;;;;;;;7.70;99.90;;;;;;2068066;28;19948;-72
2024/03/14 05:17:41;;;;;;;;;;;7.70;99.90;;;;;;2067764;28;19971;-71
2024/03/14 05:18:42;;;;;;;;;;;7.70;99.90;;;;;;2068447;28;20274;-73
2024/03/14 05:19:42;;;;;;;;;;;7.70;99.90;;;;;;2068554;28;19913;-72
2024/03/14 05:20:43;;;;;;;;;;;7.70;99.90;;;;;;2068412;28;20332;-72
2024/03/14 05:21:45;;;;;;;;;;;7.70;99.90;;;;;;2068635;28;20007;-71
2024/03/14 05:22:45;;;;;;;;;;;7.60;99.90;;;;;;2068404;28;20199;-72
2024/03/14 05:23:46;;;;;;;;;;;7.60;99.90;;;;;;2059710;28;19929;-71
2024/03/14 05:24:46;;;;;;;;;;;7.60;99.90;;;;;;2059321;28;19921;-72
2024/03/14 05:25:52;;;;;;;;;;;7.60;99.90;;;;;;2067801;28;19924;-72
2024/03/14 05:26:52;;;;;;;;;;;7.60;99.90;;;;;;2067896;28;20381;-71
2024/03/14 05:27:53;;;;;;;;;;;7.60;99.90;;;;;;2068746;28;19917;-72
2024/03/14 05:28:54;;;;;;;;;;;7.60;99.90;;;;;;2072438;28;20256;-72
2024/03/14 05:29:54;;;;;;;;;;;7.60;99.90;;;;;;2068428;28;19917;-75
2024/03/14 05:30:56;;;;;;;;;;;7.60;99.90;;;;;;2062817;28;19921;-74
2024/03/14 05:31:56;;;;;;;;;;;7.60;99.90;;;;;;2058216;28;20287;-77
2024/03/14 05:32:59;;;;;;;;;;;7.60;99.90;;;;;;2059546;28;20057;-74
2024/03/14 05:33:59;;;;;;;;;;;7.50;99.90;;;;;;2061650;28;19921;-76
2024/03/14 05:34:59;;;;;;;;;;;7.50;99.90;;;;;;2067934;28;19917;-80
2024/03/14 05:36:00;;;;;;;;;;;7.50;99.90;;;;;;2067744;28;19918;-76
2024/03/14 05:37:01;;;;;;;;;;;7.50;99.90;;;;;;2059609;28;19925;-76
2024/03/14 05:38:02;;;;;;;;;;;7.50;99.90;;;;;;2068010;28;20379;-76
2024/03/14 05:39:04;;;;;;;;;;;7.50;99.90;;;;;;2059596;28;19914;-76
2024/03/14 05:40:05;;;;;;;;;;;7.50;99.90;;;;;;2051589;28;20440;-70
2024/03/14 05:41:05;;;;;;;;;;;7.50;99.90;;;;;;2059614;28;19917;-71
2024/03/14 05:42:06;;;;;;;;;;;7.60;99.90;;;;;;2067543;28;20142;-70
2024/03/14 05:43:06;;;;;;;;;;;7.60;99.90;;;;;;2068316;28;19914;-70
2024/03/14 05:44:07;;;;;;;;;;;7.60;99.90;;;;;;2067814;28;19913;-70
2024/03/14 05:45:08;;;;;;;;;;;7.60;99.90;;;;;;2067702;28;19925;-70
2024/03/14 05:46:09;;;;;;;;;;;7.70;99.90;;;;;;2068019;28;19940;-70
2024/03/14 05:47:09;;;;;;;;;;;7.60;99.90;;;;;;2068450;28;20000;-71
2024/03/14 05:48:11;;;;;;;;;;;7.60;99.90;;;;;;2068511;28;20388;-71
2024/03/14 05:49:11;;;;;;;;;;;7.60;99.90;;;;;;2068319;28;19913;-70
2024/03/14 05:50:12;;;;;;;;;;;7.70;99.90;;;;;;2068402;28;19917;-70
2024/03/14 05:51:12;;;;;;;;;;;7.70;99.90;;;;;;2067583;28;20348;-70
2024/03/14 05:52:13;;;;;;;;;;;7.70;99.90;;;;;;2067766;28;19914;-70
2024/03/14 05:53:13;;;;;;;;;;;7.70;99.90;;;;;;2068362;28;19968;-70
2024/03/14 05:54:14;;;;;;;;;;;7.70;99.90;;;;;;2068756;28;19913;-70
2024/03/14 05:55:14;;;;;;;;;;;7.80;99.90;;;;;;2075685;28;19959;-70
2024/03/14 05:56:16;;;;;;;;;;;7.70;99.90;;;;;;2067671;28;19917;-70
2024/03/14 05:57:16;;;;;;;;;;;7.80;99.90;;;;;;2067966;28;19972;-70
2024/03/14 05:58:17;;;;;;;;;;;7.80;99.90;;;;;;2068136;28;19921;-71
2024/03/14 05:59:17;;;;;;;;;;;7.80;99.90;;;;;;2067582;28;20558;-71
2024/03/14 06:00:21;;;;;;;;;;;7.70;99.90;;;;;;2067506;28;19913;-71
2024/03/14 06:01:22;;;;;;;;;;;7.70;99.90;;;;;;2066806;28;20558;-70